Weather at Calgary/Okotoks (GG Ranch) Heliport

Public forecast

Using degrees Celsius for public forecast. Weather courtesy of forecast.io.

Closest aviation weather report (METAR) to Calgary/Okotoks (GG Ranch) Heliport

Closest report is Calgary International Airport, 22.2 nm (41.1 km) N.

2023/01/26 22:00 (retrieved 1 hour ago)

CYYC 262200Z 34014G20KT 30SM SCT059 BKN100 BKN210 06/M03 A2995 RMK SC3AC3CI1 VIRGA OVRHD SLP176

Closest aviation forecast (TAF) to Calgary/Okotoks (GG Ranch) Heliport

Closest forecast is Calgary International Airport, 22.2 nm (41.1 km) N.

2023/01/26 21:42 (retrieved 1 hour ago)

TAF CYYC 262040Z 2621/2718 34015G25KT P6SM FEW050 BKN090 TEMPO 2621/2702 P6SM -SHRA BKN040 OVC070 BECMG 2622/2624 33012KT FM270200 28005KT P6SM BKN050 TEMPO 2705/2708 P6SM -SHRASN BKN030 BECMG 2705/2707 VRB03KT FM270800 31005KT 4SM -SN VV030 TEMPO 2708/2710 1 1/2SM -SN VV012 FM271000 34012KT 3/4SM -SN VV006 TEMPO 2710/2717 1 1/2SM -SN VV012 FM271700 35018KT P6SM -SN OVC025 TEMPO 2717/2718 2 1/2SM -SN BLSN OVC008 RMK NXT FCST BY 270000Z